createdAt,value
2019-02-14T00:00:08.660Z,1038.76
2019-02-14T00:01:09.490Z,1038.79
2019-02-14T00:02:08.769Z,1038.8
2019-02-14T00:03:08.647Z,1038.79
2019-02-14T00:04:09.021Z,1038.8
2019-02-14T00:05:16.914Z,1038.77
2019-02-14T00:06:09.112Z,1038.75
2019-02-14T00:07:08.896Z,1038.74
2019-02-14T00:08:08.950Z,1038.74
2019-02-14T00:09:08.835Z,1038.74
2019-02-14T00:10:08.817Z,1038.74
2019-02-14T00:11:08.794Z,1038.77
2019-02-14T00:12:09.261Z,1038.77
2019-02-14T00:13:08.595Z,1038.79
2019-02-14T00:14:08.643Z,1038.81
2019-02-14T00:15:10.622Z,1038.76
2019-02-14T00:16:08.983Z,1038.78
2019-02-14T00:17:08.934Z,1038.74
2019-02-14T00:18:10.261Z,1038.75
2019-02-14T00:19:09.056Z,1038.72
2019-02-14T00:20:09.010Z,1038.77
2019-02-14T00:21:09.800Z,1038.75
2019-02-14T00:22:09.115Z,1038.72
2019-02-14T00:23:09.849Z,1038.71
2019-02-14T00:24:09.024Z,1038.69
2019-02-14T00:25:08.831Z,1038.7
2019-02-14T00:26:09.340Z,1038.67
2019-02-14T00:27:09.365Z,1038.69
2019-02-14T00:28:08.643Z,1038.68
2019-02-14T00:29:09.280Z,1038.68
2019-02-14T00:30:08.781Z,1038.7
2019-02-14T00:31:09.130Z,1038.7
2019-02-14T00:32:10.687Z,1038.69
2019-02-14T00:33:08.714Z,1038.71
2019-02-14T00:34:08.911Z,1038.72
2019-02-14T00:35:08.934Z,1038.74
2019-02-14T00:36:09.221Z,1038.77
2019-02-14T00:37:09.653Z,1038.76
2019-02-14T00:38:08.918Z,1038.75
2019-02-14T00:39:10.008Z,1038.75
2019-02-14T00:40:08.770Z,1038.72
2019-02-14T00:41:08.990Z,1038.73
2019-02-14T00:42:09.776Z,1038.68
2019-02-14T00:43:09.287Z,1038.68
2019-02-14T00:44:08.958Z,1038.68
2019-02-14T00:45:08.862Z,1038.69
2019-02-14T00:46:09.795Z,1038.68
2019-02-14T00:47:08.956Z,1038.69
2019-02-14T00:48:08.991Z,1038.66
2019-02-14T00:49:08.681Z,1038.69
2019-02-14T00:50:08.999Z,1038.66
2019-02-14T00:51:08.714Z,1038.63
2019-02-14T00:52:09.141Z,1038.64
2019-02-14T00:53:08.962Z,1038.64
2019-02-14T00:54:10.646Z,1038.67
2019-02-14T00:55:08.990Z,1038.67
2019-02-14T00:56:08.961Z,1038.67
2019-02-14T00:57:09.280Z,1038.69
2019-02-14T00:58:08.824Z,1038.69
2019-02-14T00:59:09.292Z,1038.65
2019-02-14T01:00:09.102Z,1038.64
2019-02-14T01:01:09.923Z,1038.64
2019-02-14T01:02:09.030Z,1038.62
2019-02-14T01:03:08.936Z,1038.6
2019-02-14T01:04:08.895Z,1038.58
2019-02-14T01:05:09.099Z,1038.57
2019-02-14T01:06:09.019Z,1038.59
2019-02-14T01:07:09.036Z,1038.59
2019-02-14T01:08:10.515Z,1038.54
2019-02-14T01:09:09.053Z,1038.6
2019-02-14T01:10:09.438Z,1038.56
2019-02-14T01:11:09.643Z,1038.57
2019-02-14T01:12:09.076Z,1038.56
2019-02-14T01:13:09.088Z,1038.58
2019-02-14T01:14:08.732Z,1038.61
2019-02-14T01:15:09.033Z,1038.66
2019-02-14T01:16:09.772Z,1038.64
2019-02-14T01:17:08.659Z,1038.62
2019-02-14T01:18:08.869Z,1038.6
2019-02-14T01:19:09.211Z,1038.6
2019-02-14T01:20:09.125Z,1038.59
2019-02-14T01:21:09.476Z,1038.6
2019-02-14T01:22:10.245Z,1038.51
2019-02-14T01:23:09.575Z,1038.52
2019-02-14T01:24:10.716Z,1038.53
2019-02-14T01:25:08.923Z,1038.54
2019-02-14T01:26:10.235Z,1038.53
2019-02-14T01:27:08.961Z,1038.54
2019-02-14T01:28:08.805Z,1038.57
2019-02-14T01:29:08.656Z,1038.58
2019-02-14T01:30:09.028Z,1038.58
2019-02-14T01:31:08.908Z,1038.57
2019-02-14T01:32:09.014Z,1038.58
2019-02-14T01:33:09.221Z,1038.58
2019-02-14T01:34:09.097Z,1038.54
2019-02-14T01:35:09.020Z,1038.55
2019-02-14T01:36:10.720Z,1038.54
2019-02-14T01:37:09.258Z,1038.54
2019-02-14T01:38:08.737Z,1038.52
2019-02-14T01:39:09.229Z,1038.52
2019-02-14T01:40:08.969Z,1038.47
2019-02-14T01:41:08.964Z,1038.48
2019-02-14T01:42:10.921Z,1038.44
2019-02-14T01:43:08.986Z,1038.47
2019-02-14T01:44:09.381Z,1038.49
2019-02-14T01:45:09.114Z,1038.46
2019-02-14T01:46:10.515Z,1038.43
2019-02-14T01:47:08.960Z,1038.47
2019-02-14T01:48:09.175Z,1038.45
2019-02-14T01:49:08.790Z,1038.49
2019-02-14T01:50:08.622Z,1038.45
2019-02-14T01:51:08.953Z,1038.46
2019-02-14T01:52:08.930Z,1038.44
2019-02-14T01:53:08.621Z,1038.49
2019-02-14T01:54:10.629Z,1038.46
2019-02-14T01:55:08.965Z,1038.43
2019-02-14T01:56:08.777Z,1038.45
2019-02-14T01:57:09.178Z,1038.4
2019-02-14T01:58:08.634Z,1038.45
2019-02-14T01:59:08.651Z,1038.41
2019-02-14T02:00:09.522Z,1038.42
2019-02-14T02:01:08.812Z,1038.39
2019-02-14T02:02:10.560Z,1038.37
2019-02-14T02:03:09.334Z,1038.4
2019-02-14T02:04:08.561Z,1038.4
2019-02-14T02:05:09.254Z,1038.42
2019-02-14T02:06:09.857Z,1038.43
2019-02-14T02:07:08.869Z,1038.44
2019-02-14T02:08:09.207Z,1038.49
2019-02-14T02:09:09.107Z,1038.48
2019-02-14T02:10:08.777Z,1038.49
2019-02-14T02:11:09.003Z,1038.48
2019-02-14T02:12:08.639Z,1038.49
2019-02-14T02:13:08.748Z,1038.48
2019-02-14T02:14:08.864Z,1038.49
2019-02-14T02:15:08.632Z,1038.43
2019-02-14T02:16:09.061Z,1038.43
2019-02-14T02:17:08.723Z,1038.43
2019-02-14T02:18:08.828Z,1038.42
2019-02-14T02:19:08.845Z,1038.46
2019-02-14T02:20:08.892Z,1038.43
2019-02-14T02:21:08.990Z,1038.46
2019-02-14T02:22:08.831Z,1038.38
2019-02-14T02:23:09.312Z,1038.44
2019-02-14T02:24:08.691Z,1038.39
2019-02-14T02:25:09.088Z,1038.38
2019-02-14T02:26:09.213Z,1038.38
2019-02-14T02:27:09.319Z,1038.39
2019-02-14T02:28:08.649Z,1038.34
2019-02-14T02:29:09.000Z,1038.36
2019-02-14T02:30:08.931Z,1038.41
2019-02-14T02:31:08.978Z,1038.42
2019-02-14T02:32:08.922Z,1038.36
2019-02-14T02:33:10.606Z,1038.34
2019-02-14T02:34:09.182Z,1038.39
2019-02-14T02:35:08.973Z,1038.36
2019-02-14T02:36:08.960Z,1038.34
2019-02-14T02:37:10.027Z,1038.35
2019-02-14T02:38:09.256Z,1038.37
2019-02-14T02:39:09.469Z,1038.37
2019-02-14T02:40:08.833Z,1038.38
2019-02-14T02:41:08.651Z,1038.43
2019-02-14T02:42:08.790Z,1038.42
2019-02-14T02:43:08.939Z,1038.46
2019-02-14T02:44:09.240Z,1038.45
2019-02-14T02:45:09.193Z,1038.49
2019-02-14T02:46:08.615Z,1038.48
2019-02-14T02:47:09.327Z,1038.51
2019-02-14T02:48:08.744Z,1038.51
2019-02-14T02:49:10.451Z,1038.5
2019-02-14T02:50:08.876Z,1038.54
2019-02-14T02:51:09.098Z,1038.6
2019-02-14T02:52:09.271Z,1038.63
2019-02-14T02:53:09.736Z,1038.62
2019-02-14T02:54:09.116Z,1038.6
2019-02-14T02:55:08.817Z,1038.61
2019-02-14T02:56:08.741Z,1038.57
2019-02-14T02:57:09.575Z,1038.58
2019-02-14T02:58:09.109Z,1038.55
2019-02-14T02:59:08.592Z,1038.58
2019-02-14T03:00:08.682Z,1038.55
2019-02-14T03:01:08.683Z,1038.56
2019-02-14T03:02:09.275Z,1038.58
2019-02-14T03:03:08.807Z,1038.59
2019-02-14T03:04:09.370Z,1038.61
2019-02-14T03:05:10.623Z,1038.61
2019-02-14T03:06:11.231Z,1038.59
2019-02-14T03:07:08.896Z,1038.62
2019-02-14T03:08:09.223Z,1038.59
2019-02-14T03:09:08.610Z,1038.59
2019-02-14T03:10:09.781Z,1038.6
2019-02-14T03:11:09.569Z,1038.6
2019-02-14T03:12:09.200Z,1038.61
2019-02-14T03:13:08.930Z,1038.62
2019-02-14T03:14:09.054Z,1038.59
2019-02-14T03:15:08.637Z,1038.6
2019-02-14T03:16:09.110Z,1038.55
2019-02-14T03:17:09.043Z,1038.56
2019-02-14T03:18:08.955Z,1038.58
2019-02-14T03:19:09.277Z,1038.56
2019-02-14T03:20:10.671Z,1038.59
2019-02-14T03:21:08.830Z,1038.61
2019-02-14T03:22:09.168Z,1038.62
2019-02-14T03:23:09.255Z,1038.66
2019-02-14T03:24:09.674Z,1038.67
2019-02-14T03:25:08.968Z,1038.66
2019-02-14T03:26:09.781Z,1038.65
2019-02-14T03:27:09.042Z,1038.62
2019-02-14T03:28:09.004Z,1038.6
2019-02-14T03:29:08.814Z,1038.6
2019-02-14T03:30:08.952Z,1038.62
2019-02-14T03:31:10.619Z,1038.58
2019-02-14T03:32:09.599Z,1038.58
2019-02-14T03:33:09.122Z,1038.57
2019-02-14T03:34:08.972Z,1038.55
2019-02-14T03:35:09.445Z,1038.55
2019-02-14T03:36:09.063Z,1038.54
2019-02-14T03:37:09.170Z,1038.55
2019-02-14T03:38:08.970Z,1038.59
2019-02-14T03:39:09.115Z,1038.53
2019-02-14T03:40:09.393Z,1038.5
2019-02-14T03:41:08.902Z,1038.52
2019-02-14T03:42:08.782Z,1038.54
2019-02-14T03:43:10.627Z,1038.54
2019-02-14T03:44:08.737Z,1038.53
2019-02-14T03:45:09.243Z,1038.58
2019-02-14T03:46:09.616Z,1038.61
2019-02-14T03:47:08.615Z,1038.62
2019-02-14T03:48:09.074Z,1038.61
2019-02-14T03:49:08.904Z,1038.69
2019-02-14T03:50:08.583Z,1038.6
2019-02-14T03:51:09.009Z,1038.68
2019-02-14T03:52:09.196Z,1038.66
2019-02-14T03:53:09.540Z,1038.65
2019-02-14T03:54:10.304Z,1038.68
2019-02-14T03:55:09.011Z,1038.7
2019-02-14T03:56:10.457Z,1038.74
2019-02-14T03:57:08.788Z,1038.71
2019-02-14T03:58:08.662Z,1038.72
2019-02-14T03:59:08.842Z,1038.73
2019-02-14T04:00:08.824Z,1038.76
2019-02-14T04:01:09.550Z,1038.75
2019-02-14T04:02:08.935Z,1038.73
2019-02-14T04:03:09.158Z,1038.73
2019-02-14T04:04:09.135Z,1038.73
2019-02-14T04:05:08.872Z,1038.77
2019-02-14T04:06:09.808Z,1038.75
2019-02-14T04:07:09.512Z,1038.73
2019-02-14T04:08:08.663Z,1038.69
2019-02-14T04:09:09.307Z,1038.7
2019-02-14T04:10:08.609Z,1038.68
2019-02-14T04:11:08.806Z,1038.67
2019-02-14T04:12:09.017Z,1038.66
2019-02-14T04:13:09.165Z,1038.68
2019-02-14T04:14:09.821Z,1038.67
2019-02-14T04:15:09.456Z,1038.69
2019-02-14T04:16:09.541Z,1038.69
2019-02-14T04:17:08.651Z,1038.72
2019-02-14T04:18:08.958Z,1038.73
2019-02-14T04:19:09.052Z,1038.75
2019-02-14T04:20:09.264Z,1038.79
2019-02-14T04:21:08.900Z,1038.81
2019-02-14T04:22:08.786Z,1038.86
2019-02-14T04:23:09.019Z,1038.85
2019-02-14T04:24:09.421Z,1038.85
2019-02-14T04:25:08.453Z,1038.84
2019-02-14T04:26:08.828Z,1038.85
2019-02-14T04:27:10.606Z,1038.83
2019-02-14T04:28:09.176Z,1038.82
2019-02-14T04:29:08.802Z,1038.82
2019-02-14T04:30:09.169Z,1038.83
2019-02-14T04:31:08.786Z,1038.84
2019-02-14T04:32:09.048Z,1038.82
2019-02-14T04:33:09.062Z,1038.86
2019-02-14T04:34:08.974Z,1038.86
2019-02-14T04:35:09.095Z,1038.87
2019-02-14T04:36:08.901Z,1038.85
2019-02-14T04:37:09.317Z,1038.86
2019-02-14T04:38:09.302Z,1038.87
2019-02-14T04:39:09.060Z,1038.86
2019-02-14T04:40:08.921Z,1038.9
2019-02-14T04:41:08.687Z,1038.87
2019-02-14T04:42:09.214Z,1038.87
2019-02-14T04:43:08.651Z,1038.86
2019-02-14T04:44:08.567Z,1038.82
2019-02-14T04:45:08.396Z,1038.83
2019-02-14T04:46:09.054Z,1038.84
2019-02-14T04:47:09.646Z,1038.82
2019-02-14T04:48:08.969Z,1038.84
2019-02-14T04:49:09.087Z,1038.8
2019-02-14T04:50:09.024Z,1038.85
2019-02-14T04:51:08.884Z,1038.82
2019-02-14T04:52:10.559Z,1038.79
2019-02-14T04:53:09.073Z,1038.79
2019-02-14T04:54:08.943Z,1038.83
2019-02-14T04:55:08.850Z,1038.82
2019-02-14T04:56:08.707Z,1038.85
2019-02-14T04:57:08.718Z,1038.85
2019-02-14T04:58:09.452Z,1038.86
2019-02-14T04:59:10.603Z,1038.84
2019-02-14T05:00:08.830Z,1038.83
2019-02-14T05:01:09.261Z,1038.87
2019-02-14T05:02:08.899Z,1038.85
2019-02-14T05:03:08.791Z,1038.89
2019-02-14T05:04:10.616Z,1038.85
2019-02-14T05:05:09.322Z,1038.86
2019-02-14T05:06:08.989Z,1038.88
2019-02-14T05:07:09.304Z,1038.92
2019-02-14T05:08:08.724Z,1038.97
2019-02-14T05:09:09.019Z,1038.98
2019-02-14T05:10:09.185Z,1038.99
2019-02-14T05:11:08.933Z,1039
2019-02-14T05:12:08.627Z,1038.98
2019-02-14T05:13:09.068Z,1039.01
2019-02-14T05:14:08.479Z,1039.01
2019-02-14T05:15:09.886Z,1039
2019-02-14T05:16:08.659Z,1039
2019-02-14T05:17:08.895Z,1038.95
2019-02-14T05:18:09.086Z,1038.93
2019-02-14T05:19:10.654Z,1038.94
2019-02-14T05:20:10.142Z,1038.96
2019-02-14T05:21:09.420Z,1038.94
2019-02-14T05:22:09.664Z,1038.96
2019-02-14T05:23:08.660Z,1038.98
2019-02-14T05:24:09.156Z,1038.97
2019-02-14T05:25:08.849Z,1038.93
2019-02-14T05:26:08.946Z,1038.96
2019-02-14T05:27:08.545Z,1039.02
2019-02-14T05:28:08.958Z,1039
2019-02-14T05:29:08.846Z,1039
2019-02-14T05:30:08.670Z,1039
2019-02-14T05:31:08.856Z,1039.01
2019-02-14T05:32:08.780Z,1038.97
2019-02-14T05:33:08.656Z,1038.98
2019-02-14T05:34:08.876Z,1038.97
2019-02-14T05:35:08.845Z,1038.96
2019-02-14T05:36:09.026Z,1038.99
2019-02-14T05:37:08.896Z,1038.99
2019-02-14T05:38:09.105Z,1039.01
2019-02-14T05:39:09.180Z,1038.98
2019-02-14T05:40:09.079Z,1038.99
2019-02-14T05:41:09.084Z,1039.02
2019-02-14T05:42:09.595Z,1038.98
2019-02-14T05:43:09.879Z,1039.03
2019-02-14T05:44:08.706Z,1039.03
2019-02-14T05:45:08.693Z,1039.03
2019-02-14T05:46:09.044Z,1039.05
2019-02-14T05:47:09.013Z,1039.1
2019-02-14T05:48:08.703Z,1039.1
2019-02-14T05:49:08.780Z,1039.08
2019-02-14T05:50:08.718Z,1039.14
2019-02-14T05:51:09.226Z,1039.13
2019-02-14T05:52:09.433Z,1039.11
2019-02-14T05:53:08.779Z,1039.13
2019-02-14T05:54:09.203Z,1039.13
2019-02-14T05:55:08.637Z,1039.12
2019-02-14T05:56:08.883Z,1039.09
2019-02-14T05:57:08.978Z,1039.1
2019-02-14T05:58:08.854Z,1039.09
2019-02-14T05:59:09.075Z,1039.07
2019-02-14T06:00:09.125Z,1039.11
2019-02-14T06:01:08.631Z,1039.09
2019-02-14T06:02:08.855Z,1039.1
2019-02-14T06:03:08.981Z,1039.1
2019-02-14T06:04:09.436Z,1039.09
2019-02-14T06:05:09.531Z,1039.09
2019-02-14T06:06:08.923Z,1039.08
2019-02-14T06:07:10.422Z,1039.07
2019-02-14T06:08:10.041Z,1039.06
2019-02-14T06:09:08.862Z,1039.08
2019-02-14T06:10:08.961Z,1039.12
2019-02-14T06:11:08.976Z,1039.16
2019-02-14T06:12:08.901Z,1039.15
2019-02-14T06:13:09.276Z,1039.21
2019-02-14T06:14:10.041Z,1039.19
2019-02-14T06:15:08.493Z,1039.22
2019-02-14T06:16:08.902Z,1039.21
2019-02-14T06:17:08.985Z,1039.2
2019-02-14T06:18:08.894Z,1039.2
2019-02-14T06:19:08.812Z,1039.25
2019-02-14T06:20:09.148Z,1039.29
2019-02-14T06:21:08.942Z,1039.29
2019-02-14T06:22:08.648Z,1039.31
2019-02-14T06:23:08.673Z,1039.37
2019-02-14T06:24:09.005Z,1039.39
2019-02-14T06:25:09.141Z,1039.41
2019-02-14T06:26:09.698Z,1039.4
2019-02-14T06:27:09.374Z,1039.41
2019-02-14T06:28:08.899Z,1039.4
2019-02-14T06:29:08.762Z,1039.36
2019-02-14T06:30:08.695Z,1039.39
2019-02-14T06:31:08.935Z,1039.37
2019-02-14T06:32:09.607Z,1039.38
2019-02-14T06:33:08.922Z,1039.4
2019-02-14T06:34:08.814Z,1039.4
2019-02-14T06:35:08.925Z,1039.41
2019-02-14T06:36:09.736Z,1039.44
2019-02-14T06:37:10.285Z,1039.49
2019-02-14T06:38:08.662Z,1039.48
2019-02-14T06:39:09.356Z,1039.45
2019-02-14T06:40:08.599Z,1039.49
2019-02-14T06:41:09.046Z,1039.49
2019-02-14T06:42:08.451Z,1039.49
2019-02-14T06:43:08.889Z,1039.49
2019-02-14T06:44:08.833Z,1039.53
2019-02-14T06:45:08.501Z,1039.51
2019-02-14T06:46:09.431Z,1039.52
2019-02-14T06:47:08.938Z,1039.54
2019-02-14T06:48:08.610Z,1039.58
2019-02-14T06:49:10.421Z,1039.61
2019-02-14T06:50:09.402Z,1039.6
2019-02-14T06:51:08.575Z,1039.59
2019-02-14T06:52:09.740Z,1039.65
2019-02-14T06:53:08.654Z,1039.62
2019-02-14T06:54:08.400Z,1039.6
2019-02-14T06:55:08.605Z,1039.63
2019-02-14T06:56:08.852Z,1039.6
2019-02-14T06:57:08.695Z,1039.65
2019-02-14T06:58:08.939Z,1039.63
2019-02-14T06:59:08.681Z,1039.67
2019-02-14T07:00:08.693Z,1039.68
2019-02-14T07:01:08.765Z,1039.71
2019-02-14T07:02:08.689Z,1039.73
2019-02-14T07:03:08.471Z,1039.74
2019-02-14T07:04:09.183Z,1039.72
2019-02-14T07:05:10.575Z,1039.79
2019-02-14T07:06:08.761Z,1039.8
2019-02-14T07:07:08.847Z,1039.78
2019-02-14T07:08:09.782Z,1039.75
2019-02-14T07:09:08.642Z,1039.74
2019-02-14T07:10:09.366Z,1039.72
2019-02-14T07:11:09.689Z,1039.67
2019-02-14T07:12:09.034Z,1039.66
2019-02-14T07:13:09.520Z,1039.65
2019-02-14T07:14:08.805Z,1039.63
2019-02-14T07:15:09.049Z,1039.68
2019-02-14T07:16:10.524Z,1039.67
2019-02-14T07:17:08.823Z,1039.69
2019-02-14T07:18:10.511Z,1039.67
2019-02-14T07:19:08.615Z,1039.68
2019-02-14T07:20:09.367Z,1039.7
2019-02-14T07:21:08.875Z,1039.74
2019-02-14T07:22:08.787Z,1039.76
2019-02-14T07:23:08.763Z,1039.78
2019-02-14T07:24:09.353Z,1039.81
2019-02-14T07:25:08.594Z,1039.82
2019-02-14T07:26:08.679Z,1039.87
2019-02-14T07:27:09.204Z,1039.89
2019-02-14T07:28:08.685Z,1039.9
2019-02-14T07:29:08.732Z,1039.93
2019-02-14T07:30:09.007Z,1039.94
2019-02-14T07:31:08.975Z,1039.92
2019-02-14T07:32:10.503Z,1039.93
2019-02-14T07:33:09.678Z,1039.91
2019-02-14T07:34:09.510Z,1039.88
2019-02-14T07:35:10.463Z,1039.88
2019-02-14T07:36:10.601Z,1039.9
2019-02-14T07:37:09.289Z,1039.9
2019-02-14T07:38:10.515Z,1039.9
2019-02-14T07:39:08.978Z,1039.91
2019-02-14T07:40:09.527Z,1039.89
2019-02-14T07:41:08.559Z,1039.9
2019-02-14T07:42:08.701Z,1039.93
2019-02-14T07:43:08.625Z,1039.94
2019-02-14T07:44:08.704Z,1039.98
2019-02-14T07:45:09.377Z,1040.01
2019-02-14T07:46:09.387Z,1040.04
2019-02-14T07:47:09.048Z,1040.06
2019-02-14T07:48:08.687Z,1040.06
2019-02-14T07:49:08.756Z,1040.05
2019-02-14T07:50:08.778Z,1040.1
2019-02-14T07:51:08.622Z,1040.09
2019-02-14T07:52:08.837Z,1040.03
2019-02-14T07:53:10.394Z,1040.05
2019-02-14T07:54:08.861Z,1040.04
2019-02-14T07:55:10.816Z,1040.03
2019-02-14T07:56:09.540Z,1040.03
2019-02-14T07:57:08.739Z,1040.02
2019-02-14T07:58:08.771Z,1040.05
2019-02-14T07:59:08.551Z,1040.05
2019-02-14T08:00:08.890Z,1040.06
2019-02-14T08:01:08.968Z,1040.07
2019-02-14T08:02:09.120Z,1040.11
2019-02-14T08:03:08.757Z,1040.1
2019-02-14T08:04:08.772Z,1040.11
2019-02-14T08:05:10.023Z,1040.1
2019-02-14T08:06:08.675Z,1040.11
2019-02-14T08:07:09.002Z,1040.13
2019-02-14T08:08:08.619Z,1040.12
2019-02-14T08:09:08.738Z,1040.18
2019-02-14T08:10:09.005Z,1040.16
2019-02-14T08:11:09.199Z,1040.13
2019-02-14T08:12:08.859Z,1040.16
2019-02-14T08:13:08.429Z,1040.19
2019-02-14T08:14:08.730Z,1040.17
2019-02-14T08:15:08.659Z,1040.21
2019-02-14T08:16:10.149Z,1040.24
2019-02-14T08:17:08.576Z,1040.3
2019-02-14T08:18:09.114Z,1040.31
2019-02-14T08:19:09.084Z,1040.35
2019-02-14T08:20:08.630Z,1040.33
2019-02-14T08:21:08.863Z,1040.34
2019-02-14T08:22:10.419Z,1040.37
2019-02-14T08:23:08.623Z,1040.36
2019-02-14T08:24:08.780Z,1040.38
2019-02-14T08:25:08.601Z,1040.33
2019-02-14T08:26:11.372Z,1040.28
2019-02-14T08:27:08.728Z,1040.27
2019-02-14T08:28:09.536Z,1040.25
2019-02-14T08:29:09.622Z,1040.22
2019-02-14T08:30:08.719Z,1040.21
2019-02-14T08:31:08.843Z,1040.2
2019-02-14T08:32:08.864Z,1040.2
2019-02-14T08:33:08.676Z,1040.22
2019-02-14T08:34:08.825Z,1040.21
2019-02-14T08:35:08.758Z,1040.22
2019-02-14T08:36:08.818Z,1040.2
2019-02-14T08:37:08.999Z,1040.22
2019-02-14T08:38:08.648Z,1040.23
2019-02-14T08:39:09.283Z,1040.25
2019-02-14T08:40:08.860Z,1040.27
2019-02-14T08:41:08.596Z,1040.26
2019-02-14T08:42:09.625Z,1040.26
2019-02-14T08:43:09.085Z,1040.26
2019-02-14T08:44:08.766Z,1040.28
2019-02-14T08:45:08.547Z,1040.27
2019-02-14T08:46:09.058Z,1040.29
2019-02-14T08:47:10.345Z,1040.27
2019-02-14T08:48:09.285Z,1040.27
2019-02-14T08:49:08.770Z,1040.27
2019-02-14T08:50:08.713Z,1040.29
2019-02-14T08:51:08.974Z,1040.31
2019-02-14T08:52:08.814Z,1040.31
2019-02-14T08:53:09.108Z,1040.28
2019-02-14T08:54:08.706Z,1040.3
2019-02-14T08:55:10.400Z,1040.29
2019-02-14T08:56:08.911Z,1040.29
2019-02-14T08:57:08.686Z,1040.28
2019-02-14T08:58:08.786Z,1040.29
2019-02-14T08:59:08.894Z,1040.32
2019-02-14T09:00:10.539Z,1040.3
2019-02-14T09:01:08.766Z,1040.37
2019-02-14T09:02:09.244Z,1040.35
2019-02-14T09:03:08.705Z,1040.33
2019-02-14T09:04:09.052Z,1040.34
2019-02-14T09:05:08.500Z,1040.36
2019-02-14T09:06:08.516Z,1040.32
2019-02-14T09:07:08.351Z,1040.36
2019-02-14T09:08:08.511Z,1040.31
2019-02-14T09:09:08.373Z,1040.3
2019-02-14T09:10:08.642Z,1040.32
2019-02-14T09:11:08.922Z,1040.32
2019-02-14T09:12:08.734Z,1040.32
2019-02-14T09:13:17.645Z,1040.31
2019-02-14T09:14:09.188Z,1040.31
2019-02-14T09:15:08.850Z,1040.29
2019-02-14T09:16:08.689Z,1040.3
2019-02-14T09:17:08.720Z,1040.26
2019-02-14T09:18:09.168Z,1040.27
2019-02-14T09:19:08.671Z,1040.24
2019-02-14T09:20:09.092Z,1040.25
2019-02-14T09:21:09.395Z,1040.25
2019-02-14T09:22:09.986Z,1040.24
2019-02-14T09:23:08.842Z,1040.25
2019-02-14T09:24:08.390Z,1040.25
2019-02-14T09:25:08.732Z,1040.24
2019-02-14T09:26:09.213Z,1040.24
2019-02-14T09:27:08.583Z,1040.25
2019-02-14T09:28:08.630Z,1040.24
2019-02-14T09:29:08.733Z,1040.21
2019-02-14T09:30:08.910Z,1040.19
2019-02-14T09:31:08.941Z,1040.16
2019-02-14T09:32:08.756Z,1040.18
2019-02-14T09:33:10.283Z,1040.2
2019-02-14T09:34:10.405Z,1040.18
2019-02-14T09:35:08.627Z,1040.19
2019-02-14T09:36:09.028Z,1040.17
2019-02-14T09:37:08.591Z,1040.19
2019-02-14T09:38:08.838Z,1040.2
2019-02-14T09:39:08.722Z,1040.16
2019-02-14T09:40:09.086Z,1040.14
2019-02-14T09:41:08.691Z,1040.16
2019-02-14T09:42:08.515Z,1040.17
2019-02-14T09:43:09.633Z,1040.15
2019-02-14T09:44:09.517Z,1040.17
2019-02-14T09:45:08.782Z,1040.18
2019-02-14T09:46:08.857Z,1040.18
2019-02-14T09:47:08.924Z,1040.19
2019-02-14T09:48:08.888Z,1040.16
2019-02-14T09:49:08.696Z,1040.19
2019-02-14T09:50:08.624Z,1040.2
2019-02-14T09:51:08.665Z,1040.22
2019-02-14T09:52:08.463Z,1040.18
2019-02-14T09:53:08.815Z,1040.17
2019-02-14T09:54:10.403Z,1040.16
2019-02-14T09:55:08.659Z,1040.18
2019-02-14T09:56:09.139Z,1040.17
2019-02-14T09:57:09.494Z,1040.18
2019-02-14T09:58:09.851Z,1040.14
2019-02-14T09:59:09.226Z,1040.17
2019-02-14T10:00:08.682Z,1040.06
2019-02-14T10:01:08.923Z,1040.06
2019-02-14T10:02:09.948Z,1040.04
2019-02-14T10:03:08.640Z,1040.09
2019-02-14T10:04:08.642Z,1040.05
2019-02-14T10:05:09.055Z,1040.08
2019-02-14T10:06:09.745Z,1040.1
2019-02-14T10:07:08.663Z,1040.1
2019-02-14T10:08:13.464Z,1040.15
2019-02-14T10:09:09.248Z,1040.12
2019-02-14T10:10:09.131Z,1040.11
2019-02-14T10:11:10.506Z,1040.12
2019-02-14T10:12:08.847Z,1040.1
2019-02-14T10:13:09.658Z,1040.1
2019-02-14T10:14:08.868Z,1040.12
2019-02-14T10:15:08.726Z,1040.02
2019-02-14T10:16:08.814Z,1040.04
2019-02-14T10:17:08.789Z,1039.98
2019-02-14T10:18:10.392Z,1039.99
2019-02-14T10:19:08.785Z,1040
2019-02-14T10:20:08.631Z,1040.01
2019-02-14T10:21:08.724Z,1040.02
2019-02-14T10:22:08.791Z,1040.05
2019-02-14T10:23:08.830Z,1040.11
2019-02-14T10:24:08.437Z,1040.09
2019-02-14T10:25:08.575Z,1040.09
2019-02-14T10:26:08.345Z,1040.08
2019-02-14T10:27:09.697Z,1040.09
2019-02-14T10:28:08.798Z,1040.07
2019-02-14T10:29:08.664Z,1040.03
2019-02-14T10:30:08.804Z,1040.03
2019-02-14T10:31:08.679Z,1040.05
2019-02-14T10:32:08.777Z,1040.05
2019-02-14T10:33:08.989Z,1040.05
2019-02-14T10:34:10.067Z,1040.08
2019-02-14T10:35:08.858Z,1040.1
2019-02-14T10:36:08.959Z,1040.06
2019-02-14T10:37:08.328Z,1040.08
2019-02-14T10:38:08.727Z,1040.08
2019-02-14T10:39:08.838Z,1040
2019-02-14T10:40:08.328Z,1039.99
2019-02-14T10:41:08.658Z,1039.96
2019-02-14T10:42:09.807Z,1039.96
2019-02-14T10:43:08.738Z,1039.98
2019-02-14T10:44:08.682Z,1039.96
2019-02-14T10:45:09.313Z,1039.97
2019-02-14T10:46:08.671Z,1039.95
2019-02-14T10:47:08.745Z,1039.97
2019-02-14T10:48:10.668Z,1039.97
2019-02-14T10:49:08.263Z,1039.98
2019-02-14T10:50:08.626Z,1039.96
2019-02-14T10:51:08.711Z,1039.94
2019-02-14T10:52:09.050Z,1039.94
2019-02-14T10:53:08.956Z,1039.96
2019-02-14T10:54:08.609Z,1039.95
2019-02-14T10:55:08.940Z,1039.96
2019-02-14T10:56:08.590Z,1039.96
2019-02-14T10:57:08.556Z,1039.96
2019-02-14T10:58:08.716Z,1039.95
2019-02-14T10:59:08.757Z,1039.9
2019-02-14T11:00:08.598Z,1039.84
2019-02-14T11:01:08.690Z,1039.84
2019-02-14T11:02:10.513Z,1039.79
2019-02-14T11:03:08.834Z,1039.78
2019-02-14T11:04:08.708Z,1039.7
2019-02-14T11:05:08.884Z,1039.71
2019-02-14T11:06:08.904Z,1039.71
2019-02-14T11:07:08.632Z,1039.72
2019-02-14T11:08:08.866Z,1039.74
2019-02-14T11:09:08.654Z,1039.69
2019-02-14T11:10:09.296Z,1039.69
2019-02-14T11:11:09.259Z,1039.65
2019-02-14T11:12:08.957Z,1039.68
2019-02-14T11:13:08.667Z,1039.69
2019-02-14T11:14:09.391Z,1039.69
2019-02-14T11:15:09.441Z,1039.65
2019-02-14T11:16:10.054Z,1039.62
2019-02-14T11:17:08.865Z,1039.62
2019-02-14T11:18:08.892Z,1039.61
2019-02-14T11:19:08.671Z,1039.62
2019-02-14T11:20:09.307Z,1039.58
2019-02-14T11:21:09.700Z,1039.57
2019-02-14T11:22:08.393Z,1039.58
2019-02-14T11:23:09.289Z,1039.57
2019-02-14T11:24:09.025Z,1039.61
2019-02-14T11:25:08.826Z,1039.53
2019-02-14T11:26:08.980Z,1039.54
2019-02-14T11:27:08.690Z,1039.54
2019-02-14T11:28:10.557Z,1039.55
2019-02-14T11:29:09.120Z,1039.53
2019-02-14T11:30:08.563Z,1039.49
2019-02-14T11:31:09.564Z,1039.49
2019-02-14T11:32:09.606Z,1039.48
2019-02-14T11:33:09.073Z,1039.48
2019-02-14T11:34:09.191Z,1039.46
2019-02-14T11:35:08.928Z,1039.48
2019-02-14T11:36:08.620Z,1039.33
2019-02-14T11:37:09.060Z,1039.41
2019-02-14T11:38:08.743Z,1039.45
2019-02-14T11:39:08.717Z,1039.41
2019-02-14T11:40:08.895Z,1039.38
2019-02-14T11:41:10.263Z,1039.34
2019-02-14T11:42:08.966Z,1039.35
2019-02-14T11:43:09.162Z,1039.28
2019-02-14T11:44:08.854Z,1039.29
2019-02-14T11:45:08.701Z,1039.27
2019-02-14T11:46:09.104Z,1039.25
2019-02-14T11:47:08.934Z,1039.28
2019-02-14T11:48:08.606Z,1039.26
2019-02-14T11:49:09.624Z,1039.32
2019-02-14T11:50:10.265Z,1039.32
2019-02-14T11:51:08.708Z,1039.3
2019-02-14T11:52:09.047Z,1039.27
2019-02-14T11:54:08.361Z,1039.28
2019-02-14T11:55:09.019Z,1039.25
2019-02-14T11:55:13.692Z,1039.33
2019-02-14T11:56:10.247Z,1039.27
2019-02-14T11:57:08.689Z,1039.21
2019-02-14T11:58:08.962Z,1039.21
2019-02-14T11:59:09.239Z,1039.18
2019-02-14T12:00:08.422Z,1039.15
2019-02-14T12:01:09.740Z,1039.14
2019-02-14T12:02:08.605Z,1039.14
2019-02-14T12:03:09.183Z,1039.11
2019-02-14T12:04:08.789Z,1039.09
2019-02-14T12:05:08.854Z,1039.1
2019-02-14T12:06:08.697Z,1039.12
2019-02-14T12:07:08.638Z,1039.11
2019-02-14T12:08:09.815Z,1039.09